Dauphin Barker Airport
CYDN : now visible

Aeroporto :











RITROVATECI SU...

 
LOGIN :

Iscrizione | Disclaimer

   EN    FR    IT 

 









Sommario :    VFR   VFR Marginale   IFR   IFR Intensivo   IFR Molto Intensivo
Visibilità : 
Base nubi : 
>= 8 km
>= 3000ft
5 / 8 km
1000 / 3000 ft
1500m / 5 km
500 / 1000 ft
800 / 1500m
200 / 500 ft
< 800m
< 200 ft
Simboli :   Temporali  Nebbia  Neve Forte  Precipitazioni Forti  Vento > 20 kt






- Altitudine del aeroporto : 999 ft
- Codice IATA : YDN


CYDN - Dauphin Barker

ULTIMO METAR :
  • 022200Z AUTO 27016KT 9SM CLR 02/ A3021 RMK TD MISG SLP245

METARs OBSOLETI :
  • 022100Z AUTO 28019KT 9SM CLR 02/ A3023 RMK TD MISG SLP252
  • 022000Z AUTO 27021G26KT 9SM CLR 02/ A3023 RMK PRESFR TD MISG SLP252

TAF TAF CYDN
Valido dal 02 a 18 ore il 03 a 06 ore UTC


021738Z 0218/0306 26018G28KT P6SM SKC RMK FCST BASED ON AUTO OBS. NXT FCST BY 030000Z
FIR CZWG / America del Nord



MetMap, La meteo Aeronautica in un colpo d'occhio ! - Copyright ORBIFLY Dicembre 2007 - Disclaimer

ORBIFLY MET'MAP TEAM :

Programmazione e sviluppo : Alexandra Zaïnal
Concezione : Baudouin d'Aumeries
Aiuto per la programmazione : Marc-Olivier Méhu
Supporto tecnico e logistico : Manuel Goepfert
Aiuto per la traduzione : Arnaldo La Scala

Contatto : metmap@orbifly.com




FONTI E CREDITI :

   NOAA       Earth
Advisory